Terminal Aerodrome Forecast
Issued by NWS

Home | Current Version | Previous Version | Text Only | Print | Product List | Glossary On
Versions: 1 2 3 4 5 6 7 8 9 10 11 12 13 14
519
FTUS46 KSGX 251720
TAFONT
TAF
KONT 251720Z 2518/2624 VRB06KT P6SM SKC
     FM251900 25010KT P6SM SKC
     FM252100 25011G20KT P6SM FEW100
     FM260300 VRB06KT P6SM SKC
     FM261800 25011KT P6SM SKC
     FM262000 25013G24KT P6SM SKC=

USA.gov is the U.S. government's official web portal to all federal, state and local government web resources and services.